Time;durP1;ratioP1;P1;durP2;ratioP2;P2;SDS_P1;SDS_P2;PMS_P1;PMS_P2;Temp;Humidity;BMP_temperature;BMP_pressure;BME280_temperature;BME280_humidity;BME280_pressure;Samples;Min_cycle;Max_cycle;Signal;HPM_P1;HPM_P2
2023/07/06 00:01:46;;;;;;;1.17;0.47;;;;;;;11.08;100.00;100597.94;5019733;28;20032;-76
2023/07/06 00:04:16;;;;;;;0.30;0.30;;;;;;;11.06;100.00;100597.31;5052278;28;20033;-76
2023/07/06 00:06:45;;;;;;;0.20;0.20;;;;;;;11.11;100.00;100594.06;5019175;28;20047;-76
2023/07/06 00:09:17;;;;;;;0.20;0.20;;;;;;;11.11;100.00;100597.56;5019531;28;20037;-77
2023/07/06 00:11:44;;;;;;;0.30;0.30;;;;;;;11.15;100.00;100592.69;5036214;28;20037;-75
2023/07/06 00:14:17;;;;;;;0.28;0.28;;;;;;;11.12;100.00;100584.97;5052241;28;20031;-75
2023/07/06 00:17:02;;;;;;;0.30;0.30;;;;;;;11.17;100.00;100590.66;5020083;28;20475;-75
2023/07/06 00:19:28;;;;;;;0.20;0.20;;;;;;;11.14;100.00;100591.00;5052352;28;20136;-75
2023/07/06 00:21:57;;;;;;;0.32;0.30;;;;;;;11.19;100.00;100585.91;5019092;28;20082;-77
2023/07/06 00:24:26;;;;;;;0.30;0.30;;;;;;;11.17;100.00;100577.19;5035946;28;20037;-76
2023/07/06 00:26:51;;;;;;;0.20;0.20;;;;;;;11.23;100.00;100581.81;5052150;28;20491;-75
2023/07/06 00:29:17;;;;;;;0.30;0.30;;;;;;;11.24;100.00;100588.88;5019137;28;20037;-76
2023/07/06 00:31:51;;;;;;;0.30;0.30;;;;;;;11.22;100.00;100575.63;5052026;28;20037;-76
2023/07/06 00:34:18;;;;;;;0.20;0.20;;;;;;;11.24;100.00;100578.09;5020103;28;20072;-75
2023/07/06 00:36:46;;;;;;;0.20;0.20;;;;;;;11.21;100.00;100573.94;5035521;28;20045;-75
2023/07/06 00:39:12;;;;;;;0.20;0.20;;;;;;;11.30;100.00;100573.84;5052096;28;20033;-75
2023/07/06 00:41:38;;;;;;;0.25;0.25;;;;;;;11.29;100.00;100575.69;5035662;28;20056;-75
2023/07/06 00:44:04;;;;;;;0.20;0.20;;;;;;;11.27;100.00;100569.66;5035432;28;20436;-75
2023/07/06 00:46:39;;;;;;;0.30;0.30;;;;;;;11.27;100.00;100574.22;5051793;28;20052;-76
2023/07/06 00:49:10;;;;;;;1.75;0.57;;;;;;;11.30;100.00;100579.22;5051763;28;20029;-75
2023/07/06 00:51:39;;;;;;;0.20;0.20;;;;;;;11.33;100.00;100576.19;5002990;28;20037;-75
2023/07/06 00:54:12;;;;;;;0.22;0.22;;;;;;;11.32;100.00;100578.00;5035588;28;20025;-76
2023/07/06 00:56:43;;;;;;;0.30;0.30;;;;;;;11.30;100.00;100573.84;5051571;28;20086;-75
2023/07/06 00:59:17;;;;;;;0.73;0.35;;;;;;;11.31;100.00;100573.66;5053680;28;20108;-77
2023/07/06 01:01:45;;;;;;;1.00;0.50;;;;;;;11.34;100.00;100581.38;5022424;28;20035;-76
2023/07/06 01:04:14;;;;;;;0.30;0.30;;;;;;;11.31;100.00;100568.28;5022460;28;20041;-76
2023/07/06 01:06:43;;;;;;;0.20;0.20;;;;;;;11.31;100.00;100572.84;5022506;28;20376;-75
2023/07/06 01:09:12;;;;;;;0.32;0.32;;;;;;;11.30;100.00;100566.63;5038863;28;20392;-75
2023/07/06 01:11:38;;;;;;;0.47;0.30;;;;;;;11.29;100.00;100567.63;5022746;28;20063;-76
2023/07/06 01:14:06;;;;;;;0.80;0.40;;;;;;;11.23;100.00;100566.50;5055061;28;20033;-75
2023/07/06 01:16:37;;;;;;;0.20;0.20;;;;;;;11.22;100.00;100570.22;5054979;28;20029;-75
2023/07/06 01:19:53;;;;;;;0.75;0.40;;;;;;;11.20;100.00;100550.75;5038763;28;20114;-76
2023/07/06 01:22:32;;;;;;;0.20;0.20;;;;;;;11.14;100.00;100558.69;5034188;28;20479;-75
2023/07/06 01:25:20;;;;;;;0.40;0.40;;;;;;;11.15;100.00;100546.94;5054815;28;20098;-75
2023/07/06 01:28:11;;;;;;;0.30;0.30;;;;;;;11.17;100.00;100552.97;5038377;28;20483;-76
2023/07/06 01:30:58;;;;;;;0.25;0.25;;;;;;;11.19;100.00;100557.16;5054914;28;20117;-75
2023/07/06 01:33:36;;;;;;;0.45;0.38;;;;;;;11.20;100.00;100545.34;5056246;28;20035;-76
2023/07/06 01:36:08;;;;;;;0.20;0.20;;;;;;;11.21;100.00;100540.81;5038980;28;20116;-76
2023/07/06 01:38:34;;;;;;;0.30;0.30;;;;;;;11.26;100.00;100546.47;5038396;28;20035;-75
2023/07/06 01:41:00;;;;;;;0.20;0.20;;;;;;;11.28;100.00;100536.34;5055221;28;20262;-76
2023/07/06 01:43:29;;;;;;;0.20;0.20;;;;;;;11.22;100.00;100537.09;5056158;28;20087;-75
2023/07/06 01:45:57;;;;;;;0.20;0.20;;;;;;;11.15;100.00;100534.31;5006003;28;20476;-75
2023/07/06 01:48:24;;;;;;;0.30;0.30;;;;;;;11.07;100.00;100534.41;5022176;28;20028;-75
2023/07/06 01:51:15;;;;;;;0.35;0.25;;;;;;;11.05;100.00;100536.44;5039143;28;20526;-77
2023/07/06 01:54:03;;;;;;;0.22;0.22;;;;;;;10.99;100.00;100524.56;5021561;28;20686;-75
2023/07/06 01:56:34;;;;;;;0.20;0.20;;;;;;;10.90;100.00;100519.44;5053223;28;20033;-76
2023/07/06 01:59:02;;;;;;;0.30;0.30;;;;;;;10.92;100.00;100529.00;5021520;28;20036;-75
2023/07/06 02:01:39;;;;;;;0.30;0.30;;;;;;;10.84;100.00;100515.63;5038034;28;20045;-75
2023/07/06 02:04:06;;;;;;;0.20;0.20;;;;;;;10.82;100.00;100509.59;5021688;28;20094;-76
2023/07/06 02:06:33;;;;;;;1.00;0.47;;;;;;;10.83;100.00;100507.75;5005472;28;20033;-75
2023/07/06 02:08:59;;;;;;;0.20;0.20;;;;;;;10.75;100.00;100497.91;5054118;28;20045;-76
2023/07/06 02:11:24;;;;;;;0.20;0.20;;;;;;;10.78;100.00;100509.13;5037493;28;20039;-76
2023/07/06 02:13:51;;;;;;;0.30;0.30;;;;;;;10.76;100.00;100507.66;5021181;28;20467;-76
2023/07/06 02:16:19;;;;;;;0.47;0.35;;;;;;;10.74;100.00;100496.22;5037871;28;20064;-75
2023/07/06 02:18:45;;;;;;;1.20;0.55;;;;;;;10.61;100.00;100477.19;5037553;28;20048;-77
2023/07/06 02:21:11;;;;;;;0.25;0.25;;;;;;;10.70;100.00;100492.25;5037702;28;20029;-75
2023/07/06 02:23:43;;;;;;;0.20;0.20;;;;;;;10.70;100.00;100495.75;5037583;28;20033;-76
2023/07/06 02:26:09;;;;;;;0.20;0.20;;;;;;;10.56;100.00;100461.63;5037881;28;20035;-75
2023/07/06 02:28:35;;;;;;;0.30;0.30;;;;;;;10.67;100.00;100480.00;5054068;28;20078;-75
2023/07/06 02:31:04;;;;;;;0.20;0.20;;;;;;;10.52;100.00;100466.53;5054246;28;20029;-75
2023/07/06 02:33:33;;;;;;;0.20;0.20;;;;;;;10.66;100.00;100481.00;5053544;28;20044;-75
2023/07/06 02:36:01;;;;;;;1.15;0.52;;;;;;;10.66;100.00;100472.09;5053535;28;20368;-76
2023/07/06 02:38:29;;;;;;;0.20;0.20;;;;;;;10.67;100.00;100469.25;5037452;28;20036;-76
2023/07/06 02:40:57;;;;;;;0.52;0.40;;;;;;;10.74;100.00;100475.56;5020722;28;20025;-76
2023/07/06 02:43:26;;;;;;;0.20;0.20;;;;;;;10.67;100.00;100457.66;5053711;28;20033;-76
2023/07/06 02:45:51;;;;;;;0.32;0.30;;;;;;;10.81;100.00;100470.28;5053931;28;20048;-76
2023/07/06 02:48:20;;;;;;;0.20;0.20;;;;;;;10.88;100.00;100471.22;5053575;28;20032;-76
2023/07/06 02:50:48;;;;;;;0.65;0.30;;;;;;;10.91;100.00;100459.25;5053894;28;20531;-75
2023/07/06 02:53:15;;;;;;;0.20;0.20;;;;;;;10.93;100.00;100455.34;5021262;28;20040;-77
2023/07/06 02:55:43;;;;;;;0.30;0.30;;;;;;;10.95;100.00;100455.16;5053459;28;20033;-76
2023/07/06 02:58:09;;;;;;;0.82;0.40;;;;;;;10.98;100.00;100454.78;5053048;28;20037;-76
2023/07/06 03:00:35;;;;;;;0.20;0.20;;;;;;;10.89;100.00;100437.06;5037176;28;20047;-75
2023/07/06 03:03:01;;;;;;;0.20;0.20;;;;;;;11.00;100.00;100441.97;5053607;28;20083;-75
2023/07/06 03:05:26;;;;;;;0.30;0.30;;;;;;;11.00;100.00;100442.81;5053512;28;20025;-76
2023/07/06 03:07:54;;;;;;;0.25;0.25;;;;;;;10.98;100.00;100439.50;5052804;28;20372;-78
2023/07/06 03:10:23;;;;;;;0.30;0.30;;;;;;;10.99;100.00;100441.16;5037256;28;20033;-75
2023/07/06 03:12:55;;;;;;;0.30;0.30;;;;;;;10.98;100.00;100439.50;5053568;28;20064;-75
2023/07/06 03:15:20;;;;;;;0.22;0.22;;;;;;;10.97;100.00;100440.50;5037335;28;20489;-75
2023/07/06 03:17:50;;;;;;;0.30;0.30;;;;;;;10.95;100.00;100429.09;5036621;28;20037;-76
2023/07/06 03:20:21;;;;;;;0.30;0.30;;;;;;;11.00;100.00;100434.75;5053149;28;20528;-75
2023/07/06 03:22:48;;;;;;;0.30;0.30;;;;;;;11.00;100.00;100429.34;5036421;28;20048;-76
2023/07/06 03:25:15;;;;;;;0.20;0.20;;;;;;;10.91;100.00;100411.66;5020381;28;20101;-75
2023/07/06 03:27:43;;;;;;;0.30;0.30;;;;;;;11.02;100.00;100420.28;5019798;28;20048;-77
2023/07/06 03:30:10;;;;;;;0.28;0.28;;;;;;;11.00;100.00;100426.66;5020158;28;20037;-75
2023/07/06 03:32:37;;;;;;;0.30;0.30;;;;;;;10.99;100.00;100416.13;5003593;28;20048;-76
2023/07/06 03:35:12;;;;;;;0.32;0.32;;;;;;;10.99;100.00;100427.69;5036370;28;20041;-76
2023/07/06 03:37:39;;;;;;;0.30;0.30;;;;;;;10.92;100.00;100413.31;5036790;28;20036;-75
2023/07/06 03:40:11;;;;;;;0.30;0.30;;;;;;;10.88;100.00;100413.91;5035883;28;20048;-75
2023/07/06 03:42:44;;;;;;;0.28;0.28;;;;;;;10.81;100.00;100408.41;5037110;28;20043;-75
2023/07/06 03:45:11;;;;;;;0.20;0.20;;;;;;;10.82;100.00;100411.94;5036410;28;20037;-75
2023/07/06 03:47:38;;;;;;;0.30;0.30;;;;;;;10.79;100.00;100413.13;5052627;28;20036;-75
2023/07/06 03:50:08;;;;;;;0.30;0.30;;;;;;;10.78;100.00;100408.78;5035871;28;20075;-76
2023/07/06 03:52:36;;;;;;;0.65;0.40;;;;;;;10.72;100.00;100394.25;5019573;28;20118;-77
2023/07/06 03:55:03;;;;;;;0.32;0.30;;;;;;;10.77;100.00;100412.50;5052227;28;20032;-76
2023/07/06 03:57:30;;;;;;;0.30;0.30;;;;;;;10.74;100.00;100405.66;5035656;28;20037;-75
2023/07/06 03:59:56;;;;;;;0.20;0.20;;;;;;;10.73;100.00;100405.81;5053299;28;20028;-75
2023/07/06 04:02:22;;;;;;;0.50;0.35;;;;;;;10.73;100.00;100403.97;5052357;28;20075;-76
2023/07/06 04:04:48;;;;;;;0.30;0.30;;;;;;;10.72;100.00;100409.53;5052581;28;20041;-75
2023/07/06 04:07:13;;;;;;;0.28;0.28;;;;;;;10.73;100.00;100409.34;5053612;28;20464;-75
2023/07/06 04:09:39;;;;;;;0.45;0.30;;;;;;;10.75;100.00;100407.31;5036084;28;20356;-75
2023/07/06 04:12:13;;;;;;;0.38;0.30;;;;;;;10.72;100.00;100401.47;5053526;28;20047;-75
2023/07/06 04:14:41;;;;;;;0.20;0.20;;;;;;;10.66;100.00;100389.59;5019339;28;20029;-75
2023/07/06 04:17:08;;;;;;;0.32;0.30;;;;;;;10.74;100.00;100399.41;5052401;28;20088;-75
2023/07/06 04:19:36;;;;;;;0.28;0.28;;;;;;;10.73;100.00;100400.44;5052274;28;20053;-75
2023/07/06 04:22:05;;;;;;;0.30;0.30;;;;;;;10.70;100.00;100393.59;5035471;28;20395;-76
2023/07/06 04:24:34;;;;;;;0.30;0.30;;;;;;;10.60;100.00;100376.06;5053125;28;20037;-75
2023/07/06 04:27:00;;;;;;;0.22;0.22;;;;;;;10.70;100.00;100392.75;5035779;28;20124;-75
2023/07/06 04:29:29;;;;;;;0.45;0.30;;;;;;;10.63;100.00;100375.69;5051959;28;20133;-75
2023/07/06 04:31:58;;;;;;;0.30;0.30;;;;;;;10.73;100.00;100387.84;5036715;28;20033;-75
2023/07/06 04:34:24;;;;;;;0.68;0.38;;;;;;;10.72;100.00;100383.47;5053549;28;20025;-75
2023/07/06 04:36:50;;;;;;;0.40;0.40;;;;;;;10.72;100.00;100371.91;5057371;28;20040;-76
2023/07/06 04:39:18;;;;;;;0.52;0.38;;;;;;;10.67;100.00;100361.69;5055844;28;20036;-75
2023/07/06 04:41:44;;;;;;;0.25;0.25;;;;;;;10.72;100.00;100364.66;5055853;28;20029;-76
2023/07/06 04:44:13;;;;;;;0.60;0.40;;;;;;;10.65;100.00;100346.75;5039348;28;20029;-75
2023/07/06 04:46:39;;;;;;;0.85;0.45;;;;;;;10.73;100.00;100360.94;5023317;28;20033;-75
2023/07/06 04:49:05;;;;;;;0.40;0.40;;;;;;;10.72;100.00;100359.28;5055728;28;20112;-76
2023/07/06 04:51:35;;;;;;;0.22;0.22;;;;;;;10.67;100.00;100342.88;5039186;28;20029;-76
2023/07/06 04:54:02;;;;;;;0.30;0.30;;;;;;;10.76;100.00;100346.28;5055756;28;20039;-75
2023/07/06 04:56:28;;;;;;;1.25;0.47;;;;;;;10.83;100.00;100349.06;5055897;28;20115;-75
2023/07/06 04:58:56;;;;;;;0.30;0.30;;;;;;;10.90;100.00;100360.72;5056793;28;20108;-77
2023/07/06 05:01:34;;;;;;;0.35;0.35;;;;;;;10.94;100.00;100351.28;5040108;28;20082;-75
2023/07/06 05:04:02;;;;;;;0.30;0.30;;;;;;;10.93;100.00;100334.31;5039424;28;20037;-77
2023/07/06 05:06:28;;;;;;;0.22;0.22;;;;;;;10.96;100.00;100333.09;5055809;28;20025;-75
2023/07/06 05:08:53;;;;;;;0.30;0.30;;;;;;;11.07;100.00;100342.53;5055711;28;20078;-76
2023/07/06 05:11:20;;;;;;;0.20;0.20;;;;;;;11.12;100.00;100332.03;5039220;28;20496;-75
2023/07/06 05:13:46;;;;;;;0.30;0.30;;;;;;;11.23;100.00;100340.44;5038752;28;20490;-75
2023/07/06 05:16:11;;;;;;;0.30;0.30;;;;;;;11.35;100.00;100337.25;5055381;28;20025;-76
2023/07/06 05:18:40;;;;;;;0.47;0.30;;;;;;;11.48;100.00;100328.47;5055625;28;20064;-76
2023/07/06 05:21:05;;;;;;;0.63;0.40;;;;;;;11.54;100.00;100319.63;5055272;28;20463;-75
2023/07/06 05:23:31;;;;;;;0.63;0.40;;;;;;;11.62;100.00;100327.59;5038922;28;20036;-75
2023/07/06 05:26:02;;;;;;;0.30;0.30;;;;;;;11.67;100.00;100322.44;5056300;28;20031;-75
2023/07/06 05:28:29;;;;;;;0.65;0.40;;;;;;;11.76;100.00;100321.28;5022979;28;20570;-76
2023/07/06 05:30:56;;;;;;;1.08;0.50;;;;;;;11.80;100.00;100319.00;5055125;28;20048;-76
2023/07/06 05:33:21;;;;;;;0.30;0.30;;;;;;;11.79;100.00;100314.66;5055277;28;20075;-76
2023/07/06 05:35:47;;;;;;;0.30;0.30;;;;;;;11.80;100.00;100311.78;5056145;28;20056;-75
2023/07/06 05:38:13;;;;;;;0.30;0.30;;;;;;;11.79;100.00;100302.03;5054863;28;20041;-75
2023/07/06 05:40:40;;;;;;;1.00;0.50;;;;;;;11.92;100.00;100305.91;5038759;28;20041;-75
2023/07/06 05:43:07;;;;;;;0.57;0.40;;;;;;;11.94;100.00;100309.22;5038592;28;20037;-76
2023/07/06 05:45:33;;;;;;;0.63;0.40;;;;;;;11.98;100.00;100299.72;5054019;28;20051;-75
2023/07/06 05:47:58;;;;;;;0.65;0.40;;;;;;;12.09;100.00;100304.56;5054731;28;20471;-75
2023/07/06 05:50:26;;;;;;;0.60;0.40;;;;;;;12.13;100.00;100300.44;5021545;28;20083;-76
2023/07/06 05:52:52;;;;;;;0.77;0.40;;;;;;;12.21;100.00;100304.84;5055749;28;20112;-75
2023/07/06 05:55:18;;;;;;;0.43;0.30;;;;;;;12.21;100.00;100300.28;5054685;28;20215;-75
2023/07/06 05:57:47;;;;;;;0.98;0.77;;;;;;;12.20;100.00;100303.16;5037870;28;20029;-76
2023/07/06 06:00:16;;;;;;;0.30;0.30;;;;;;;12.13;100.00;100294.22;5054441;28;20021;-75
2023/07/06 06:02:44;;;;;;;0.30;0.30;;;;;;;12.12;100.00;100301.50;5038112;28;20033;-75
2023/07/06 06:05:14;;;;;;;0.32;0.32;;;;;;;12.07;100.00;100303.94;5054439;28;20036;-75
2023/07/06 06:07:45;;;;;;;0.28;0.28;;;;;;;12.22;100.00;100295.72;5038205;28;20087;-76
2023/07/06 06:10:14;;;;;;;0.30;0.30;;;;;;;12.36;100.00;100280.47;5054216;28;20029;-75
2023/07/06 06:12:40;;;;;;;0.40;0.40;;;;;;;12.34;100.00;100267.19;5021320;28;20037;-76
2023/07/06 06:15:10;;;;;;;0.40;0.40;;;;;;;12.43;100.00;100271.38;5054131;28;20033;-76
2023/07/06 06:17:40;;;;;;;0.35;0.35;;;;;;;12.45;100.00;100271.19;5053844;28;20044;-76
2023/07/06 06:20:09;;;;;;;0.80;0.55;;;;;;;12.37;100.00;100271.34;5021569;28;20056;-75
2023/07/06 06:22:35;;;;;;;1.13;0.50;;;;;;;12.22;100.00;100249.91;5037710;28;20033;-75
2023/07/06 06:25:02;;;;;;;2.17;0.77;;;;;;;12.37;100.00;100260.56;5053886;28;20108;-76
2023/07/06 06:27:29;;;;;;;0.30;0.30;;;;;;;12.43;100.00;100265.16;5037246;28;20033;-76
2023/07/06 06:29:55;;;;;;;0.82;0.50;;;;;;;12.57;100.00;100250.72;5053329;28;20090;-75
2023/07/06 06:32:29;;;;;;;0.90;0.88;;;;;;;12.84;100.00;100264.31;5054882;28;20033;-75
2023/07/06 06:35:00;;;;;;;0.82;0.82;;;;;;;13.17;100.00;100256.28;5038588;28;20031;-75
2023/07/06 06:37:27;;;;;;;1.05;0.82;;;;;;;13.54;100.00;100251.34;5055011;28;20070;-76
2023/07/06 06:39:53;;;;;;;1.08;0.73;;;;;;;13.81;100.00;100260.28;5036943;28;20045;-76
2023/07/06 06:42:19;;;;;;;3.42;1.77;;;;;;;13.98;100.00;100258.81;5053588;28;20032;-75
2023/07/06 06:44:45;;;;;;;1.17;0.75;;;;;;;14.00;100.00;100248.63;5052478;28;20437;-76
2023/07/06 06:47:10;;;;;;;12.98;1.58;;;;;;;13.99;100.00;100241.53;5052554;28;20047;-76
2023/07/06 06:49:36;;;;;;;1.88;1.38;;;;;;;13.93;100.00;100233.47;5052832;28;20100;-76
2023/07/06 06:52:06;;;;;;;3.20;1.40;;;;;;;13.96;100.00;100241.97;5052305;28;20029;-76
2023/07/06 06:54:32;;;;;;;1.98;1.00;;;;;;;13.94;100.00;100229.69;5054005;28;20459;-75
2023/07/06 06:56:58;;;;;;;2.83;1.77;;;;;;;14.03;100.00;100218.47;5036633;28;20036;-75
2023/07/06 06:59:23;;;;;;;3.05;1.35;;;;;;;14.17;100.00;100232.78;5036785;28;20025;-77
2023/07/06 07:01:50;;;;;;;1.58;1.38;;;;;;;14.25;100.00;100231.72;5052817;28;20483;-75
2023/07/06 07:04:20;;;;;;;3.30;1.33;;;;;;;14.18;100.00;100225.47;5037109;28;20037;-75
2023/07/06 07:07:03;;;;;;;2.78;1.65;;;;;;;14.10;100.00;100220.31;5052733;28;20502;-76
2023/07/06 07:09:29;;;;;;;2.00;1.83;;;;;;;14.06;100.00;100228.03;5021152;28;20029;-76
2023/07/06 07:11:54;;;;;;;1.70;1.00;;;;;;;14.02;100.00;100216.78;5052826;28;20375;-76
2023/07/06 07:14:20;;;;;;;2.25;1.52;;;;;;;13.97;100.00;100219.31;5052780;28;20032;-76
2023/07/06 07:16:45;;;;;;;1.45;1.17;;;;;;;13.89;100.00;100215.97;5020248;28;20039;-76
2023/07/06 07:19:11;;;;;;;1.92;1.33;;;;;;;13.69;100.00;100195.25;5036531;28;20036;-77
2023/07/06 07:21:37;;;;;;;3.35;2.05;;;;;;;13.75;100.00;100215.19;5036409;28;20025;-76
2023/07/06 07:24:06;;;;;;;2.65;1.58;;;;;;;13.71;100.00;100212.09;5052606;28;20033;-77
2023/07/06 07:26:34;;;;;;;2.75;1.60;;;;;;;13.70;100.00;100205.00;5036241;28;20045;-75
2023/07/06 07:29:02;;;;;;;2.75;1.70;;;;;;;13.71;100.00;100197.75;5052707;28;20044;-75
2023/07/06 07:31:28;;;;;;;5.55;1.98;;;;;;;13.76;100.00;100200.63;5053959;28;20032;-75
2023/07/06 07:33:54;;;;;;;2.55;1.67;;;;;;;13.81;100.00;100181.91;5052100;28;20095;-76
2023/07/06 07:36:20;;;;;;;2.65;1.77;;;;;;;13.95;100.00;100191.66;5036403;28;20395;-75
2023/07/06 07:38:47;;;;;;;2.90;1.45;;;;;;;14.02;100.00;100178.94;5053997;28;20035;-76
2023/07/06 07:41:22;;;;;;;3.70;1.77;;;;;;;14.08;100.00;100180.81;5035892;28;20037;-77
2023/07/06 07:43:49;;;;;;;5.20;2.25;;;;;;;14.06;100.00;100171.25;5036187;28;20029;-77
2023/07/06 07:46:17;;;;;;;2.00;1.42;;;;;;;14.06;100.00;100177.47;5052506;28;20087;-77
2023/07/06 07:48:46;;;;;;;2.40;1.80;;;;;;;14.05;100.00;100169.56;5019540;28;20120;-77
2023/07/06 07:51:16;;;;;;;4.40;2.97;;;;;;;14.04;100.00;100160.63;5036215;28;20467;-77
2023/07/06 07:53:44;;;;;;;3.60;2.33;;;;;;;14.05;100.00;100154.22;5019543;28;20037;-76
2023/07/06 07:56:17;;;;;;;5.28;3.38;;;;;;;13.97;100.00;100142.78;5037177;28;20078;-76
2023/07/06 07:58:48;;;;;;;5.10;3.03;;;;;;;14.02;100.00;100157.31;5035944;28;20033;-77
2023/07/06 08:01:20;;;;;;;1.88;1.20;;;;;;;13.95;100.00;100134.09;5037001;28;20025;-76
2023/07/06 08:03:47;;;;;;;5.28;2.58;;;;;;;13.88;100.00;100134.09;5051807;28;20479;-77
2023/07/06 08:06:18;;;;;;;5.43;2.63;;;;;;;14.07;100.00;100138.59;5036089;28;20095;-76
2023/07/06 08:08:50;;;;;;;4.35;2.67;;;;;;;14.19;100.00;100143.34;5051374;28;20059;-75
2023/07/06 08:11:23;;;;;;;3.15;2.20;;;;;;;14.33;100.00;100142.22;5035947;28;20029;-75
2023/07/06 08:13:53;;;;;;;;;;;;;;;14.39;100.00;100133.25;5035534;28;20036;-76
2023/07/06 08:16:20;;;;;;;5.05;2.15;;;;;;;14.48;100.00;100131.97;5068178;28;20378;-80
2023/07/06 08:18:50;;;;;;;4.57;2.10;;;;;;;14.64;100.00;100122.53;5035808;28;20036;-76
2023/07/06 08:21:16;;;;;;;2.75;2.05;;;;;;;14.92;100.00;100124.84;5051713;28;20029;-80
2023/07/06 08:23:51;;;;;;;5.38;2.75;;;;;;;15.18;100.00;100121.06;5019156;28;20036;-81
2023/07/06 08:26:17;;;;;;;1.90;1.30;;;;;;;15.51;100.00;100114.53;5052385;28;20373;-81
2023/07/06 08:28:44;;;;;;;4.05;2.10;;;;;;;16.00;100.00;100096.47;5018709;28;20033;-80
2023/07/06 08:31:12;;;;;;;3.53;2.45;;;;;;;17.46;100.00;100111.63;5051987;28;20029;-79
2023/07/06 08:33:39;;;;;;;3.25;2.45;;;;;;;18.05;100.00;100104.25;5035612;28;20025;-81
2023/07/06 08:36:06;;;;;;;2.92;2.10;;;;;;;17.70;100.00;100080.66;5035392;28;20037;-81
2023/07/06 08:38:32;;;;;;;4.30;2.17;;;;;;;17.32;100.00;100078.44;5035855;28;20040;-81
2023/07/06 08:41:03;;;;;;;4.15;2.40;;;;;;;17.24;100.00;100068.75;5034936;28;20033;-80
2023/07/06 08:43:31;;;;;;;2.83;1.38;;;;;;;17.32;100.00;100075.72;5036211;28;20052;-80
2023/07/06 08:46:00;;;;;;;4.63;2.00;;;;;;;16.84;100.00;100055.84;5019280;28;20087;-82
2023/07/06 08:48:28;;;;;;;1.38;1.08;;;;;;;16.36;100.00;100069.53;5051688;28;20032;-80
2023/07/06 08:50:58;;;;;;;1.23;1.00;;;;;;;16.02;100.00;100069.16;5035002;28;20029;-80
2023/07/06 08:53:29;;;;;;;1.73;0.70;;;;;;;15.42;100.00;100034.56;5034673;28;20371;-80
2023/07/06 08:56:00;;;;;;;0.40;0.40;;;;;;;14.98;100.00;100069.00;5035919;28;20032;-78
2023/07/06 08:58:32;;;;;;;0.52;0.35;;;;;;;14.59;100.00;100059.31;5019599;28;20041;-79
2023/07/06 09:01:16;;;;;;;1.17;0.65;;;;;;;14.37;100.00;100066.88;5019159;28;20468;-79
2023/07/06 09:03:51;;;;;;;0.30;0.30;;;;;;;14.18;100.00;100047.84;5029256;28;20025;-79
2023/07/06 09:06:27;;;;;;;0.45;0.30;;;;;;;14.08;100.00;100034.84;5035246;28;20025;-80
2023/07/06 09:09:03;;;;;;;0.30;0.30;;;;;;;13.95;100.00;100053.81;5035202;28;20536;-81
2023/07/06 09:11:33;;;;;;;1.23;0.50;;;;;;;13.51;100.00;100028.41;5051435;28;20044;-81
2023/07/06 09:14:05;;;;;;;0.30;0.30;;;;;;;13.46;100.00;100046.31;5051883;28;20490;-80
2023/07/06 09:16:35;;;;;;;0.40;0.40;;;;;;;13.38;100.00;100040.09;5035101;28;20360;-79
2023/07/06 09:19:07;;;;;;;0.35;0.35;;;;;;;13.45;100.00;100036.56;5018244;28;20033;-81
2023/07/06 09:21:35;;;;;;;1.13;0.40;;;;;;;13.42;100.00;100040.50;5020191;28;20033;-80
2023/07/06 09:24:02;;;;;;;0.50;0.43;;;;;;;13.27;100.00;100039.91;5038442;28;20480;-80
2023/07/06 09:26:33;;;;;;;0.55;0.40;;;;;;;13.17;100.00;100032.22;5071750;28;20029;-81
2023/07/06 09:29:32;;;;;;;0.40;0.40;;;;;;;13.23;100.00;100038.63;5039411;28;20087;-81
2023/07/06 09:32:16;;;;;;;1.60;0.52;;;;;;;13.19;100.00;100033.66;5054139;28;20047;-81
2023/07/06 09:34:55;;;;;;;1.65;0.60;;;;;;;13.35;100.00;100035.13;5054265;28;20071;-82
2023/07/06 09:37:26;;;;;;;1.45;0.63;;;;;;;13.48;100.00;100012.66;5021976;28;20053;-80
2023/07/06 09:40:04;;;;;;;0.95;0.50;;;;;;;13.61;100.00;100009.06;5053961;28;20029;-83
2023/07/06 09:42:32;;;;;;;0.20;0.20;;;;;;;13.86;100.00;100014.56;5037839;28;20048;-81
2023/07/06 09:44:59;;;;;;;1.45;0.55;;;;;;;14.01;100.00;99998.06;5022209;28;20070;-82
2023/07/06 09:47:30;;;;;;;0.40;0.40;;;;;;;14.19;100.00;100000.03;5054533;28;20376;-80
2023/07/06 09:50:23;;;;;;;0.85;0.50;;;;;;;14.33;100.00;100001.59;5054563;28;20037;-82
2023/07/06 09:52:49;;;;;;;0.52;0.40;;;;;;;14.26;100.00;99968.34;5022756;28;20033;-82
2023/07/06 09:55:24;;;;;;;1.15;0.50;;;;;;;14.45;100.00;99985.50;5021496;28;20166;-82
2023/07/06 09:57:51;;;;;;;1.10;0.60;;;;;;;14.47;100.00;99976.13;5021761;28;20122;-82
2023/07/06 10:00:22;;;;;;;0.38;0.38;;;;;;;14.39;100.00;99954.72;5021475;28;20407;-82
2023/07/06 10:03:15;;;;;;;0.30;0.30;;;;;;;14.46;100.00;99974.44;5005838;28;20033;-82
2023/07/06 10:06:17;;;;;;;0.52;0.40;;;;;;;14.45;100.00;99961.16;5037943;28;20537;-82
2023/07/06 10:09:14;;;;;;;0.60;0.60;;;;;;;14.32;100.00;99948.56;5036709;28;20090;-82
2023/07/06 10:11:57;;;;;;;0.75;0.45;;;;;;;14.34;100.00;99948.34;5037640;28;20115;-82
2023/07/06 10:14:41;;;;;;;0.70;0.50;;;;;;;14.59;100.00;99941.09;5054232;28;20036;-82
2023/07/06 10:17:37;;;;;;;0.60;0.50;;;;;;;14.98;100.00;99920.09;5037838;28;20080;-83
2023/07/06 10:20:12;;;;;;;0.40;0.40;;;;;;;15.46;100.00;99926.63;5054084;28;20475;-83
2023/07/06 10:23:11;;;;;;;1.00;0.50;;;;;;;15.66;100.00;99923.63;5037797;28;20041;-81
2023/07/06 10:25:52;;;;;;;0.47;0.47;;;;;;;15.43;100.00;99895.38;5037405;28;20037;-81
2023/07/06 10:28:32;;;;;;;1.10;0.50;;;;;;;15.32;100.00;99891.56;5020860;28;20040;-82
2023/07/06 10:30:58;;;;;;;1.00;0.63;;;;;;;15.13;100.00;99879.09;5021441;28;20036;-82
2023/07/06 10:33:27;;;;;;;0.45;0.40;;;;;;;15.19;100.00;99878.19;5036451;28;20032;-82
2023/07/06 10:35:53;;;;;;;0.35;0.35;;;;;;;15.31;100.00;99884.47;5021146;28;20068;-83
2023/07/06 10:38:19;;;;;;;1.00;0.60;;;;;;;15.31;100.00;99834.91;5037194;28;20102;-83
2023/07/06 10:41:12;;;;;;;0.40;0.40;;;;;;;15.45;100.00;99844.47;5020576;28;20037;-82
2023/07/06 10:43:48;;;;;;;1.00;0.47;;;;;;;15.23;100.00;99848.78;5023128;28;20064;-82
2023/07/06 10:46:26;;;;;;;0.38;0.38;;;;;;;14.75;100.00;99808.97;5053809;28;20041;-82
2023/07/06 10:48:59;;;;;;;1.77;0.68;;;;;;;14.69;100.00;99841.28;5053778;28;20051;-83
2023/07/06 10:51:26;;;;;;;1.03;0.43;;;;;;;14.54;100.00;99824.59;5037526;28;20040;-81
2023/07/06 10:54:07;;;;;;;0.30;0.30;;;;;;;14.48;100.00;99826.28;5036852;28;20047;-79
2023/07/06 10:56:40;;;;;;;0.30;0.30;;;;;;;14.50;100.00;99826.91;5053318;28;20064;-79
2023/07/06 10:59:18;;;;;;;0.43;0.40;;;;;;;14.43;100.00;99807.22;5037096;28;20037;-81
2023/07/06 11:01:45;;;;;;;0.85;0.50;;;;;;;14.67;100.00;99805.50;5036757;28;20036;-82
2023/07/06 11:04:41;;;;;;;0.55;0.40;;;;;;;15.03;100.00;99813.81;5053341;28;20084;-81
2023/07/06 11:07:34;;;;;;;0.85;0.40;;;;;;;15.23;100.00;99803.56;5053251;28;20040;-83
2023/07/06 11:10:22;;;;;;;0.30;0.30;;;;;;;15.33;100.00;99801.13;5035616;28;20044;-81
2023/07/06 11:13:04;;;;;;;0.38;0.38;;;;;;;15.49;100.00;99790.69;5020335;28;20467;-80
2023/07/06 11:15:39;;;;;;;0.38;0.38;;;;;;;15.72;100.00;99776.41;5052958;28;20391;-80
2023/07/06 11:18:19;;;;;;;0.40;0.40;;;;;;;15.92;100.00;99778.75;5036772;28;20387;-81
2023/07/06 11:20:53;;;;;;;0.40;0.40;;;;;;;16.06;100.00;99766.63;5020605;28;20029;-81
2023/07/06 11:23:37;;;;;;;0.40;0.30;;;;;;;15.96;100.00;99771.81;5053237;28;20027;-80
2023/07/06 11:26:07;;;;;;;0.50;0.40;;;;;;;15.69;100.00;99766.84;5037415;28;20065;-80
2023/07/06 11:28:35;;;;;;;0.32;0.32;;;;;;;15.63;100.00;99765.03;5053370;28;20086;-80
2023/07/06 11:31:27;;;;;;;0.30;0.30;;;;;;;15.55;100.00;99746.41;5036522;28;20475;-80
2023/07/06 11:34:06;;;;;;;1.25;0.60;;;;;;;15.28;100.00;99737.88;5019242;28;20120;-80
2023/07/06 11:36:50;;;;;;;1.67;0.65;;;;;;;15.04;100.00;99732.38;5050636;28;20036;-81